Aviation Digital Data Service (ADDS)

Output produced by METARs form (0504 UTC 21 September 2017)
found at http://www.aviationweather.gov/adds/metars/
 
TAF HDAM 202300Z 2100/2124 28012KT 8000 HZ FEW023 FEW030CB 
     BECMG 2106/2112 28012KT 6000 HZ NSC 
     BECMG 2112/2115 08010KT FEW030CB